Terminal Aerodrome Forecast
Issued by NWS

Home | Current Version | Previous Version | Text Only | Print | Product List | Glossary On
Versions: 1 2 3 4 5 6 7 8 9 10 11 12 13 14 15
000
FTUS43 KFGF 062300
TAFBJI
TAF
KBJI 062320Z 0700/0724 27009KT P6SM SCT120
      TEMPO 0703/0706 -SN BKN050
     FM070900 30012G20KT P6SM BKN040
     FM071500 31011KT P6SM SCT250=

USA.gov is the U.S. government's official web portal to all federal, state and local government web resources and services.